Auburn, CA

7:07 PM PDT on August 30, 2014 (GMT -0700)
Auburn Municipal | Change Station
CLOSE
Current Station
Airport
Location: Auburn,
Elevation: 1532 ft
Nearby Weather Stations

Elev 1532 ft 38.95 °N, 121.09 °W | Updated 12 minutes ago

Clear
Clear
88 °F
Feels Like 88 °F
N
5
Wind Variable Wind from SW

Today
High -- | Low -- °F
--% Chance of Precip.
Yesterday
High -- | Low -- °F
Precip. -- in
6:31 AM 7:37 PM
Waxing Crescent, 26% visible
Pressure 29.85 in
Visibility 10.0 miles
Clouds Clear
Dew Point 37 °F
Humidity 17%
Rainfall 0.00 in
Snow Depth Not available.
UV 0 out of 12
Pollen 9.20 out of 12
Ozone Good
Flu Activity Not available.
METAR KAUN 310155Z AUTO 22004KT 10SM CLR 31/03 A2985 RMK AO1

More Conditions Fewer Conditions

Pressure 29.85 in
Visibility 10.0 miles
Clouds Clear
Dew Point 37 °F
Humidity 17%
Rainfall 0.00 in
Snow Depth Not available.
UV 0 out of 12
Pollen 9.20 out of 12
Ozone Good
Flu Activity Not available.
METAR KAUN 310155Z AUTO 22004KT 10SM CLR 31/03 A2985 RMK AO1

More Conditions Fewer Conditions

10-Day Weather Forecast

Almanac

Astronomy

Aug. 30, 2014 Rise Set
Actual Time 6:31 AM PDT 7:37 PM PDT
Civil Twilight 6:04 AM PDT 8:05 PM PDT
Nautical Twilight 5:31 AM PDT 8:37 PM PDT
Astronomical Twilight 4:57 AM PDT 9:11 PM PDT
Moon 11:21 AM PDT (8/30) 10:18 PM PDT (8/30)
Length of Visible Light 14h 01m
Length of Day
13h 06m
Tomorrow will be 2m 25s shorter.
Waxing Crescent, 26% of the Moon is Illuminated
Today
Waxing Crescent
Sep 2
First Quarter
Sep 8
Full
Sep 15
Last Quarter
Sep 24
New

Today's Extremes

State Highs State Lows

Community

WunderPhotos

Upload Photos

1,748,725 photos uploaded!

Nearby

Air Quality

  Air Quality AQ Index Pollutant
Yesterday Moderate
OZONE
Current Good
OZONE
Saturday Moderate
OZONE
Sunday Moderate
OZONE
Monday Moderate
OZONE
Tuesday Moderate
OZONE
Wednesday Moderate
OZONE

Snow Depth

Station Depth Elevation
Rubicon #2 0 in 7500 ft
Tahoe City Cross 0 in 6750 ft
Hagan's Meadow 0 in 8000 ft
Monitor Pass 0 in 8350 ft
Summit Meadow 0 in 9122 ft

Earthquake Activity

City Distance Mag. Time & Date
The Geysers, California 92 miles 2.7 2:53 PM PDT
2014-08-29
Minimum magnitude displayed is 2.5.

Coastal Water Temperatures

Place Temperature
No Stations Reporting

Nearby Weather Stations